Time;durP1;ratioP1;P1;durP2;ratioP2;P2;SDS_P1;SDS_P2;PMS_P1;PMS_P2;Temp;Humidity;BMP_temperature;BMP_pressure;BME280_temperature;BME280_humidity;BME280_pressure;Samples;Min_cycle;Max_cycle;Signal;HPM_P1;HPM_P2
2023/08/04 00:01:04;;;;;;;5.40;2.42;;;15.40;99.90;;;;;;25594523;23;20012;-50
2023/08/04 00:11:06;;;;;;;6.18;2.90;;;15.50;99.90;;;;;;25594333;23;20009;-57
2023/08/04 00:21:08;;;;;;;5.78;2.47;;;15.20;99.90;;;;;;25593747;23;20012;-57
2023/08/04 00:31:12;;;;;;;5.60;2.38;;;15.00;99.90;;;;;;25593408;23;20005;-45
2023/08/04 00:41:14;;;;;;;5.65;2.10;;;14.80;99.90;;;;;;25592949;23;20075;-56
2023/08/04 00:51:16;;;;;;;5.13;1.40;;;14.60;99.90;;;;;;25593813;23;20009;-49
2023/08/04 01:01:18;;;;;;;3.08;1.45;;;14.80;99.90;;;;;;25592225;23;20001;-56
2023/08/04 01:11:27;;;;;;;5.13;1.70;;;14.50;99.90;;;;;;25592146;23;20005;-56
2023/08/04 01:21:42;;;;;;;5.57;1.77;;;14.20;99.90;;;;;;25605968;23;20377;-49
2023/08/04 01:31:45;;;;;;;4.03;1.95;;;13.90;99.90;;;;;;25595855;23;20491;-55
2023/08/04 01:41:47;;;;;;;3.30;2.08;;;13.80;99.90;;;;;;25590512;23;20150;-56
2023/08/04 01:51:48;;;;;;;3.45;1.70;;;13.70;99.90;;;;;;25590276;23;20040;-49
2023/08/04 02:01:50;;;;;;;4.55;1.63;;;13.70;99.90;;;;;;25589475;23;20309;-56
2023/08/04 02:11:53;;;;;;;3.63;1.25;;;13.60;99.90;;;;;;25589614;23;20067;-54
2023/08/04 02:21:55;;;;;;;3.22;1.58;;;13.40;99.90;;;;;;25588999;23;20001;-53
2023/08/04 02:31:57;;;;;;;3.42;1.40;;;13.50;99.90;;;;;;25562729;23;20059;-55
2023/08/04 02:41:59;;;;;;;2.40;1.38;;;13.90;99.90;;;;;;25588353;23;20013;-56
2023/08/04 02:52:01;;;;;;;3.05;1.60;;;13.80;99.90;;;;;;25588723;23;20009;-55
2023/08/04 03:02:03;;;;;;;5.03;1.85;;;13.40;99.90;;;;;;25588169;23;20009;-55
2023/08/04 03:12:05;;;;;;;4.57;2.17;;;13.20;99.90;;;;;;25588160;23;20005;-56
2023/08/04 03:22:07;;;;;;;7.45;2.40;;;13.10;99.90;;;;;;25595661;23;20009;-54
2023/08/04 03:32:09;;;;;;;3.97;2.15;;;12.90;99.90;;;;;;25596257;23;20005;-56
2023/08/04 03:42:11;;;;;;;6.82;2.10;;;12.90;99.90;;;;;;25595649;23;20024;-51
2023/08/04 03:52:13;;;;;;;4.07;2.33;;;13.10;99.90;;;;;;25595213;23;20005;-44
2023/08/04 04:02:14;;;;;;;4.28;2.58;;;12.90;99.90;;;;;;25594736;23;20008;-56
2023/08/04 04:12:16;;;;;;;7.03;2.95;;;12.60;99.90;;;;;;25594535;23;20009;-56
2023/08/04 04:22:18;;;;;;;6.93;2.50;;;12.50;99.90;;;;;;25594376;23;20027;-55
2023/08/04 04:32:20;;;;;;;5.25;2.55;;;12.30;99.90;;;;;;25593217;23;20005;-55
2023/08/04 04:42:22;;;;;;;5.68;2.22;;;12.20;99.90;;;;;;25593549;23;20498;-54
2023/08/04 04:52:38;;;;;;;5.95;2.20;;;12.20;99.90;;;;;;25593142;23;20051;-54
2023/08/04 05:02:40;;;;;;;5.93;2.20;;;12.10;99.90;;;;;;25633510;23;20005;-55
2023/08/04 05:12:42;;;;;;;4.05;2.38;;;12.10;99.90;;;;;;25592397;23;20005;-54
2023/08/04 05:22:44;;;;;;;4.97;2.67;;;12.20;99.90;;;;;;25591625;23;20008;-54
2023/08/04 05:32:46;;;;;;;4.05;2.63;;;12.40;99.90;;;;;;25592090;23;20506;-52
2023/08/04 05:42:51;;;;;;;4.13;1.67;;;12.90;99.90;;;;;;25590382;23;20017;-55
2023/08/04 05:52:53;;;;;;;4.43;1.90;;;13.60;99.90;;;;;;25590230;23;20332;-55
2023/08/04 06:02:55;;;;;;;3.65;1.23;;;14.20;99.90;;;;;;25589647;23;20060;-56
2023/08/04 06:12:56;;;;;;;3.13;1.20;;;14.80;99.90;;;;;;25589529;23;20009;-54
2023/08/04 06:22:58;;;;;;;7.72;2.03;;;15.40;99.90;;;;;;25589194;23;20005;-53
2023/08/04 06:33:00;;;;;;;3.15;1.10;;;16.30;99.90;;;;;;25562466;23;20016;-50
2023/08/04 06:43:02;;;;;;;2.65;1.00;;;17.70;99.90;;;;;;25328703;23;20516;-55
2023/08/04 06:53:05;;;;;;;3.80;1.00;;;18.30;99.90;;;;;;25329316;23;20006;-56
2023/08/04 07:03:08;;;;;;;1.70;0.80;;;18.60;99.90;;;;;;25328944;23;20014;-55
2023/08/04 07:13:10;;;;;;;2.97;1.02;;;19.50;99.90;;;;;;25532811;23;20008;-56
2023/08/04 07:23:11;;;;;;;2.17;1.13;;;19.40;99.90;;;;;;25586071;23;20116;-48
2023/08/04 07:33:13;;;;;;;2.28;1.25;;;18.70;99.90;;;;;;25585875;23;20013;-55
2023/08/04 07:43:16;;;;;;;26.55;17.02;;;18.30;99.90;;;;;;25586498;23;20013;-55
2023/08/04 07:53:18;;;;;;;7.85;1.23;;;18.50;99.90;;;;;;25587165;23;20352;-56
2023/08/04 08:03:20;;;;;;;2.63;1.27;;;18.70;99.90;;;;;;25590048;23;20013;-54
2023/08/04 08:13:23;;;;;;;4.78;1.13;;;19.20;99.90;;;;;;25568231;23;20060;-56
2023/08/04 08:23:25;;;;;;;1.75;0.63;;;19.20;99.90;;;;;;25593826;23;20012;-55
2023/08/04 08:33:27;;;;;;;2.90;0.95;;;19.30;99.90;;;;;;25593301;23;20009;-55
2023/08/04 08:43:29;;;;;;;3.70;1.00;;;19.70;99.90;;;;;;25634221;23;20067;-55
2023/08/04 08:53:31;;;;;;;5.45;1.58;;;19.40;99.90;;;;;;25592602;23;20005;-56
2023/08/04 09:03:38;;;;;;;6.00;4.25;;;18.80;99.90;;;;;;25592130;23;20013;-56
2023/08/04 09:13:45;;;;;;;3.08;0.98;;;18.20;99.90;;;;;;25632849;23;20328;-56
2023/08/04 09:23:52;;;;;;;4.78;2.42;;;17.50;99.90;;;;;;25631024;23;20383;-56
2023/08/04 09:33:58;;;;;;;2.83;0.95;;;17.40;99.90;;;;;;25612669;23;20059;-56
2023/08/04 09:44:05;;;;;;;6.20;1.73;;;17.80;99.90;;;;;;25631731;23;20520;-56
2023/08/04 09:54:07;;;;;;;5.82;1.65;;;18.00;99.90;;;;;;25631008;23;20333;-56
2023/08/04 10:04:10;;;;;;;4.13;1.25;;;17.80;99.90;;;;;;25589781;23;20005;-54
2023/08/04 10:14:12;;;;;;;2.92;1.00;;;18.10;99.90;;;;;;25589682;23;20009;-49
2023/08/04 10:24:14;;;;;;;1.73;0.90;;;19.60;99.00;;;;;;25588734;23;20013;-56
2023/08/04 10:34:50;;;;;;;1.35;0.73;;;21.30;98.70;;;;;;25588441;23;20017;-56
2023/08/04 10:44:55;;;;;;;1.85;0.90;;;22.10;96.70;;;;;;25629663;23;20056;-56
2023/08/04 10:54:57;;;;;;;2.80;1.15;;;22.00;97.60;;;;;;25588289;23;20028;-55
2023/08/04 11:05:00;;;;;;;2.47;1.10;;;22.20;94.30;;;;;;25587941;23;20059;-56
2023/08/04 11:15:03;;;;;;;2.28;0.95;;;22.30;92.80;;;;;;25586515;23;20009;-56
2023/08/04 11:25:06;;;;;;;2.10;1.10;;;22.50;92.30;;;;;;25587433;23;20067;-57
2023/08/04 11:35:08;;;;;;;1.15;0.90;;;23.10;92.10;;;;;;25587948;23;20017;-57
2023/08/04 11:45:10;;;;;;;2.28;1.30;;;23.60;93.20;;;;;;25595565;23;20059;-57
2023/08/04 11:55:11;;;;;;;2.92;0.90;;;23.70;94.10;;;;;;25595468;23;20052;-45
2023/08/04 12:05:13;;;;;;;3.45;1.17;;;22.90;91.30;;;;;;25594645;23;20001;-57
2023/08/04 12:15:15;;;;;;;2.55;1.40;;;23.20;93.50;;;;;;25594152;23;20008;-57
2023/08/04 12:25:17;;;;;;;2.35;1.02;;;24.50;86.90;;;;;;25593628;23;20013;-57
2023/08/04 12:35:19;;;;;;;2.90;1.02;;;24.20;87.20;;;;;;25593513;23;20013;-57
2023/08/04 12:45:20;;;;;;;1.45;1.00;;;23.90;90.50;;;;;;25593082;23;20009;-57
2023/08/04 12:55:22;;;;;;;1.52;1.15;;;23.30;93.30;;;;;;25592479;23;20005;-57
2023/08/04 13:05:25;;;;;;;1.52;1.08;;;22.60;92.80;;;;;;25592090;23;20021;-56
2023/08/04 13:15:28;;;;;;;3.30;1.30;;;22.80;92.90;;;;;;25591934;23;20040;-50
2023/08/04 13:25:39;;;;;;;2.60;1.30;;;23.30;91.30;;;;;;25591623;23;20005;-57
2023/08/04 13:35:40;;;;;;;2.63;1.50;;;23.10;90.50;;;;;;25606205;23;20013;-58
2023/08/04 13:45:42;;;;;;;2.53;1.20;;;22.30;94.50;;;;;;25590895;23;20016;-58
2023/08/04 13:55:44;;;;;;;1.55;1.17;;;21.80;95.80;;;;;;25590386;23;20013;-58
2023/08/04 14:05:45;;;;;;;2.90;1.42;;;21.60;96.10;;;;;;25589872;23;20008;-50
2023/08/04 14:15:48;;;;;;;2.17;1.25;;;22.20;95.50;;;;;;25589575;23;20446;-57
2023/08/04 14:25:49;;;;;;;2.97;1.40;;;23.40;95.90;;;;;;25589165;23;20005;-58
2023/08/04 14:35:51;;;;;;;3.17;1.55;;;24.80;94.80;;;;;;25588835;23;20012;-58
2023/08/04 14:45:53;;;;;;;5.90;2.35;;;24.70;94.50;;;;;;25588754;23;20009;-57
2023/08/04 14:55:55;;;;;;;3.75;2.10;;;23.30;95.60;;;;;;25587508;23;20013;-54
2023/08/04 15:05:56;;;;;;;5.68;2.38;;;23.00;97.20;;;;;;25588468;23;20032;-57
2023/08/04 15:16:03;;;;;;;7.07;2.53;;;23.00;99.60;;;;;;25587798;23;20302;-58
2023/08/04 15:26:04;;;;;;;4.60;2.50;;;23.60;98.20;;;;;;25628872;23;20075;-58
2023/08/04 15:36:08;;;;;;;4.95;2.80;;;22.60;98.70;;;;;;25587275;23;20017;-58
2023/08/04 15:46:09;;;;;;;4.50;2.22;;;22.00;99.60;;;;;;25587321;23;20437;-58
2023/08/04 15:56:11;;;;;;;6.68;2.95;;;20.80;99.90;;;;;;25587231;23;20008;-57
2023/08/04 16:06:13;;;;;;;5.28;2.95;;;19.60;99.90;;;;;;25586972;23;20498;-57
2023/08/04 16:16:15;;;;;;;4.97;2.30;;;17.80;99.90;;;;;;25586675;23;20512;-58
2023/08/04 16:26:17;;;;;;;7.45;3.10;;;16.70;99.90;;;;;;25590294;23;20067;-57
2023/08/04 16:36:19;;;;;;;8.35;5.90;;;15.80;99.90;;;;;;25593411;23;20009;-57
2023/08/04 16:46:20;;;;;;;7.32;5.60;;;14.70;99.90;;;;;;25593417;23;20055;-58
2023/08/04 16:56:22;;;;;;;4.97;2.08;;;14.30;99.90;;;;;;25592961;23;20001;-59
2023/08/04 17:06:24;;;;;;;5.05;2.85;;;14.00;99.90;;;;;;25592355;23;20550;-59
2023/08/04 17:16:26;;;;;;;8.40;4.80;;;13.70;99.90;;;;;;25592397;23;20005;-46
2023/08/04 17:26:28;;;;;;;6.60;4.40;;;13.70;99.90;;;;;;25591836;23;20502;-59
2023/08/04 17:36:30;;;;;;;6.97;5.38;;;14.00;99.90;;;;;;25591771;23;20047;-59
2023/08/04 17:46:32;;;;;;;9.80;7.10;;;14.20;99.90;;;;;;25590784;23;20017;-58
2023/08/04 17:56:34;;;;;;;2.97;2.33;;;14.30;99.90;;;;;;25590712;23;20048;-58
2023/08/04 18:06:35;;;;;;;12.23;2.20;;;14.30;99.90;;;;;;25590350;23;20001;-58
2023/08/04 18:16:38;;;;;;;7.40;5.03;;;14.20;99.90;;;;;;25589941;23;19998;-58
2023/08/04 18:26:40;;;;;;;3.30;1.73;;;14.10;99.90;;;;;;25589378;23;20306;-57
2023/08/04 18:36:42;;;;;;;4.35;1.98;;;13.90;99.90;;;;;;25589016;23;20009;-58
2023/08/04 18:46:43;;;;;;;6.65;3.65;;;13.70;99.90;;;;;;25588803;23;20001;-57
2023/08/04 18:56:46;;;;;;;6.07;3.95;;;13.70;99.90;;;;;;25588674;23;20047;-57
2023/08/04 19:06:51;;;;;;;1.85;1.30;;;13.80;99.90;;;;;;25588377;23;20005;-57
2023/08/04 19:16:54;;;;;;;3.45;1.15;;;12.90;99.90;;;;;;25589262;23;20005;-57
2023/08/04 19:26:56;;;;;;;5.40;1.38;;;13.60;99.90;;;;;;25587657;23;20005;-58
2023/08/04 19:37:00;;;;;;;2.40;1.40;;;13.00;99.90;;;;;;25587261;23;20035;-57
2023/08/04 19:47:05;;;;;;;2.72;1.67;;;12.40;99.90;;;;;;25586612;23;20016;-55
2023/08/04 19:57:09;;;;;;;4.10;1.50;;;12.00;99.90;;;;;;25590084;23;20009;-52
2023/08/04 20:07:11;;;;;;;5.10;1.50;;;11.60;99.90;;;;;;25543097;23;20032;-50
2023/08/04 20:17:14;;;;;;;2.13;1.27;;;11.40;99.90;;;;;;25594332;23;20056;-49
2023/08/04 20:27:17;;;;;;;4.20;1.85;;;11.20;99.90;;;;;;25594147;23;20009;-53
2023/08/04 20:37:19;;;;;;;3.42;1.80;;;11.20;99.90;;;;;;25593669;23;20078;-49
2023/08/04 20:47:42;;;;;;;3.38;1.55;;;11.20;99.90;;;;;;25611984;23;20249;-54
2023/08/04 20:57:44;;;;;;;3.17;1.25;;;11.20;99.90;;;;;;25592804;23;20005;-54
2023/08/04 21:07:46;;;;;;;1.85;1.08;;;11.10;99.90;;;;;;25591022;23;20013;-54
2023/08/04 21:17:48;;;;;;;4.50;1.20;;;11.20;99.90;;;;;;25592128;23;20001;-53
2023/08/04 21:27:50;;;;;;;2.05;1.00;;;11.10;99.90;;;;;;25591559;23;20001;-51
2023/08/04 21:37:52;;;;;;;1.48;0.80;;;11.20;99.90;;;;;;25592262;23;20013;-55
2023/08/04 21:47:55;;;;;;;2.10;1.05;;;11.60;99.90;;;;;;25591344;23;20255;-51
2023/08/04 21:57:56;;;;;;;2.08;0.98;;;11.90;99.90;;;;;;25590754;23;20005;-53
2023/08/04 22:07:58;;;;;;;2.65;0.90;;;12.00;99.90;;;;;;25564469;23;20009;-53
2023/08/04 22:18:00;;;;;;;2.03;1.45;;;12.00;99.90;;;;;;25591236;23;20100;-54
2023/08/04 22:28:02;;;;;;;1.92;1.25;;;11.90;99.90;;;;;;25591034;23;20005;-54
2023/08/04 22:38:03;;;;;;;1.63;1.02;;;11.90;99.90;;;;;;25590565;23;20302;-55
2023/08/04 22:48:05;;;;;;;1.50;1.10;;;12.20;99.90;;;;;;25564365;23;20032;-53
2023/08/04 22:58:07;;;;;;;3.03;0.95;;;12.30;99.90;;;;;;25590166;23;20009;-52
2023/08/04 23:08:08;;;;;;;1.90;0.80;;;12.20;99.90;;;;;;25589962;23;20001;-47
2023/08/04 23:18:10;;;;;;;1.48;0.90;;;12.50;99.90;;;;;;25589609;23;20028;-50
2023/08/04 23:28:13;;;;;;;2.30;1.17;;;12.60;99.90;;;;;;25589686;23;20005;-54
2023/08/04 23:38:14;;;;;;;1.33;0.90;;;12.30;99.90;;;;;;25595775;23;20507;-45
2023/08/04 23:48:16;;;;;;;1.67;1.13;;;11.90;99.90;;;;;;25597449;23;20005;-55
2023/08/04 23:58:18;;;;;;;2.42;1.10;;;11.60;99.90;;;;;;25596839;23;20012;-52
